Time,TemperatureF,DewpointF,PressureIn,WindDirection,WindDirectionDegrees,WindSpeedMPH,WindSpeedGustMPH,Humidity,HourlyPrecipIn,Conditions,Clouds,dailyrainin,SolarRadiationWatts/m^2,SoftwareType,DateUTC
2013-11-27 00:02:00,29.0,27.0,-100.00,SW,230,1.0,2.0,93,0.00,,,0.03,0.000000,,2013-11-27 05:02:00,
2013-11-27 00:10:00,29.0,27.0,-100.00,ESE,115,1.0,2.0,93,0.00,,,0.03,0.000000,,2013-11-27 05:10:00,
2013-11-27 00:42:00,29.0,27.0,-100.00,ESE,115,1.0,2.0,93,0.00,,,0.03,0.000000,,2013-11-27 05:42:00,
2013-11-27 00:53:00,29.0,27.0,-100.00,ESE,115,1.0,2.0,93,0.00,,,0.03,0.000000,,2013-11-27 05:53:00,
2013-11-27 01:02:00,29.0,27.0,-100.00,ESE,115,1.0,2.0,93,0.00,,,0.03,0.000000,,2013-11-27 06:02:00,
2013-11-27 01:10:00,30.0,28.0,-100.00,NE,37,1.0,4.0,94,0.00,,,0.03,0.000000,,2013-11-27 06:10:00,
2013-11-27 01:42:00,30.0,28.0,-100.00,NE,37,1.0,4.0,94,0.00,,,0.03,0.000000,,2013-11-27 06:42:00,
2013-11-27 01:52:00,30.0,28.0,-100.00,NE,37,1.0,4.0,94,0.00,,,0.03,0.000000,,2013-11-27 06:52:00,
2013-11-27 02:02:00,30.0,28.0,-100.00,NE,37,1.0,4.0,94,0.00,,,0.03,0.000000,,2013-11-27 07:02:00,
2013-11-27 02:10:00,31.0,29.0,-100.00,NW,308,1.0,4.0,94,0.00,,,0.03,0.000000,,2013-11-27 07:10:00,
2013-11-27 02:42:00,31.0,29.0,-100.00,NW,308,1.0,4.0,94,0.00,,,0.03,0.000000,,2013-11-27 07:42:00,
2013-11-27 02:53:00,31.0,29.0,-100.00,NW,308,1.0,4.0,94,0.00,,,0.03,0.000000,,2013-11-27 07:53:00,
2013-11-27 03:02:00,31.0,29.0,-100.00,NW,308,1.0,4.0,94,0.00,,,0.03,0.000000,,2013-11-27 08:02:00,
2013-11-27 03:10:00,32.0,30.0,-100.00,West,273,2.0,6.0,94,0.00,,,0.03,0.000000,,2013-11-27 08:10:00,
2013-11-27 03:43:00,32.0,30.0,-100.00,West,273,2.0,6.0,94,0.00,,,0.03,0.000000,,2013-11-27 08:43:00,
2013-11-27 03:53:00,32.0,30.0,-100.00,West,273,2.0,6.0,94,0.00,,,0.03,0.000000,,2013-11-27 08:53:00,
2013-11-27 04:02:00,32.0,30.0,-100.00,West,273,2.0,6.0,94,0.00,,,0.03,0.000000,,2013-11-27 09:02:00,
2013-11-27 04:10:00,32.0,31.0,-100.00,NW,322,1.0,4.0,95,0.00,,,-99.99,0.000000,,2013-11-27 09:10:00,
2013-11-27 04:43:00,32.0,31.0,-100.00,NW,322,1.0,4.0,95,0.00,,,-99.99,0.000000,,2013-11-27 09:43:00,
2013-11-27 04:54:00,32.0,31.0,-100.00,NW,322,1.0,4.0,95,0.00,,,-99.99,0.000000,,2013-11-27 09:54:00,
2013-11-27 05:03:00,32.0,31.0,-100.00,NW,322,1.0,4.0,95,0.00,,,-99.99,0.000000,,2013-11-27 10:03:00,
2013-11-27 05:10:00,32.0,31.0,-100.00,West,265,2.0,4.0,95,0.00,,,0.03,0.000000,,2013-11-27 10:10:00,
2013-11-27 05:43:00,32.0,31.0,-100.00,West,265,2.0,4.0,95,0.00,,,0.03,0.000000,,2013-11-27 10:43:00,
2013-11-27 05:53:00,32.0,31.0,-100.00,West,265,2.0,4.0,95,0.00,,,0.03,0.000000,,2013-11-27 10:53:00,
2013-11-27 06:02:00,32.0,31.0,-100.00,West,265,2.0,4.0,95,0.00,,,0.03,0.000000,,2013-11-27 11:02:00,
2013-11-27 06:10:00,33.0,32.0,-100.00,WNW,303,2.0,5.0,95,0.00,,,0.03,0.000000,,2013-11-27 11:10:00,
2013-11-27 06:42:00,33.0,32.0,-100.00,WNW,303,2.0,5.0,95,0.00,,,0.03,0.000000,,2013-11-27 11:42:00,
2013-11-27 06:53:00,33.0,32.0,-100.00,WNW,303,2.0,5.0,95,0.00,,,0.03,0.000000,,2013-11-27 11:53:00,
2013-11-27 07:02:00,33.0,32.0,-100.00,WNW,303,2.0,5.0,95,0.00,,,0.03,0.000000,,2013-11-27 12:02:00,
2013-11-27 12:10:00,40.0,39.0,-100.00,East,90,2.0,4.0,97,-99.99,,,0.84,31.000000,,2013-11-27 17:10:00,
2013-11-27 12:42:00,40.0,39.0,-100.00,East,90,2.0,4.0,97,-99.99,,,0.84,31.000000,,2013-11-27 17:42:00,
2013-11-27 12:52:00,40.0,39.0,-100.00,East,90,2.0,4.0,97,-99.99,,,0.84,31.000000,,2013-11-27 17:52:00,
2013-11-27 13:02:00,40.0,39.0,-100.00,East,90,2.0,4.0,97,-99.99,,,0.84,31.000000,,2013-11-27 18:02:00,
2013-11-27 13:10:00,39.0,38.0,-100.00,East,97,1.0,5.0,97,0.10,,,0.92,21.000000,,2013-11-27 18:10:00,
2013-11-27 13:43:00,39.0,38.0,-100.00,East,97,1.0,5.0,97,0.10,,,0.92,21.000000,,2013-11-27 18:43:00,
2013-11-27 13:52:00,39.0,38.0,-100.00,East,97,1.0,5.0,97,0.10,,,0.92,21.000000,,2013-11-27 18:52:00,
2013-11-27 14:02:00,39.0,38.0,-100.00,East,97,1.0,5.0,97,0.10,,,0.92,21.000000,,2013-11-27 19:02:00,
2013-11-27 14:10:00,40.0,39.0,-100.00,NW,316,2.0,6.0,97,0.09,,,1.01,11.000000,,2013-11-27 19:10:00,
2013-11-27 14:42:00,40.0,39.0,-100.00,NW,316,2.0,6.0,97,0.09,,,1.01,11.000000,,2013-11-27 19:42:00,
2013-11-27 14:53:00,40.0,39.0,-100.00,NW,316,2.0,6.0,97,0.09,,,1.01,11.000000,,2013-11-27 19:53:00,
2013-11-27 15:02:00,40.0,39.0,-100.00,NW,316,2.0,6.0,97,0.09,,,1.01,11.000000,,2013-11-27 20:02:00,
2013-11-27 15:10:00,37.0,36.0,-100.00,NE,53,0.0,3.0,97,0.05,,,1.06,7.000000,,2013-11-27 20:10:00,
2013-11-27 15:42:00,37.0,36.0,-100.00,NE,53,0.0,3.0,97,0.05,,,1.06,7.000000,,2013-11-27 20:42:00,
2013-11-27 15:53:00,37.0,36.0,-100.00,NE,53,0.0,3.0,97,0.05,,,1.06,7.000000,,2013-11-27 20:53:00,
2013-11-27 16:02:00,37.0,36.0,-100.00,NE,53,0.0,3.0,97,0.05,,,1.06,7.000000,,2013-11-27 21:02:00,
2013-11-27 16:10:00,36.0,35.0,-100.00,NE,34,0.0,2.0,97,0.01,,,1.07,3.000000,,2013-11-27 21:10:00,
2013-11-27 16:43:00,36.0,35.0,-100.00,NE,34,0.0,2.0,97,0.01,,,1.07,3.000000,,2013-11-27 21:43:00,
2013-11-27 16:53:00,36.0,35.0,-100.00,NE,34,0.0,2.0,97,0.01,,,1.07,3.000000,,2013-11-27 21:53:00,
2013-11-27 17:03:00,36.0,35.0,-100.00,NE,34,0.0,2.0,97,0.01,,,1.07,3.000000,,2013-11-27 22:03:00,
2013-11-27 17:10:00,36.0,35.0,-100.00,SSE,147,1.0,2.0,97,0.06,,,1.13,0.000000,,2013-11-27 22:10:00,
2013-11-27 17:43:00,36.0,35.0,-100.00,SSE,147,1.0,2.0,97,0.06,,,1.13,0.000000,,2013-11-27 22:43:00,
2013-11-27 17:52:00,36.0,35.0,-100.00,SSE,147,1.0,2.0,97,0.06,,,1.13,0.000000,,2013-11-27 22:52:00,
2013-11-27 18:02:00,36.0,35.0,-100.00,SSE,147,1.0,2.0,97,0.06,,,1.13,0.000000,,2013-11-27 23:02:00,
2013-11-27 18:10:00,34.0,33.0,-100.00,East,92,0.0,2.0,97,0.05,,,1.18,0.000000,,2013-11-27 23:10:00,
2013-11-27 18:43:00,34.0,33.0,-100.00,East,92,0.0,2.0,97,0.05,,,1.18,0.000000,,2013-11-27 23:43:00,
2013-11-27 18:53:00,34.0,33.0,-100.00,East,92,0.0,2.0,97,0.05,,,1.18,0.000000,,2013-11-27 23:53:00,
2013-11-27 19:02:00,34.0,33.0,-100.00,East,92,0.0,2.0,97,0.05,,,1.18,0.000000,,2013-11-28 00:02:00,
2013-11-27 19:10:00,33.0,32.0,-100.00,SW,214,1.0,2.0,97,0.02,,,1.20,0.000000,,2013-11-28 00:10:00,
2013-11-27 19:42:00,33.0,32.0,-100.00,SW,214,1.0,2.0,97,0.02,,,1.20,0.000000,,2013-11-28 00:42:00,
2013-11-27 19:52:00,33.0,32.0,-100.00,SW,214,1.0,2.0,97,0.02,,,1.20,0.000000,,2013-11-28 00:52:00,
2013-11-27 20:01:00,33.0,32.0,-100.00,SW,214,1.0,2.0,97,0.02,,,1.20,0.000000,,2013-11-28 01:01:00,
2013-11-27 20:10:00,32.0,31.0,-100.00,West,270,2.0,5.0,97,0.00,,,1.20,0.000000,,2013-11-28 01:10:00,
2013-11-27 20:42:00,32.0,31.0,-100.00,West,270,2.0,5.0,97,0.00,,,1.20,0.000000,,2013-11-28 01:42:00,
2013-11-27 20:52:00,32.0,31.0,-100.00,West,270,2.0,5.0,97,0.00,,,1.20,0.000000,,2013-11-28 01:52:00,
2013-11-27 21:02:00,32.0,31.0,-100.00,West,270,2.0,5.0,97,0.00,,,1.20,0.000000,,2013-11-28 02:02:00,
2013-11-27 21:10:00,32.0,31.0,-100.00,SSE,147,1.0,6.0,97,0.00,,,1.20,0.000000,,2013-11-28 02:10:00,
2013-11-27 21:52:00,32.0,31.0,-100.00,SSE,147,1.0,6.0,97,0.00,,,1.20,0.000000,,2013-11-28 02:52:00,
2013-11-27 22:02:00,32.0,31.0,-100.00,SSE,147,1.0,6.0,97,0.00,,,1.20,0.000000,,2013-11-28 03:02:00,
2013-11-27 22:10:00,31.0,30.0,-100.00,East,94,1.0,3.0,97,0.00,,,1.20,0.000000,,2013-11-28 03:10:00,
2013-11-27 22:44:00,31.0,30.0,-100.00,East,94,1.0,3.0,97,0.00,,,1.20,0.000000,,2013-11-28 03:44:00,
2013-11-27 22:53:00,31.0,30.0,-100.00,East,94,1.0,3.0,97,0.00,,,1.20,0.000000,,2013-11-28 03:53:00,
2013-11-27 23:04:00,31.0,30.0,-100.00,East,94,1.0,3.0,97,0.00,,,1.20,0.000000,,2013-11-28 04:04:00,
2013-11-27 23:10:00,31.0,30.0,-100.00,WSW,247,1.0,8.0,96,0.00,,,1.20,0.000000,,2013-11-28 04:10:00,
2013-11-27 23:43:00,31.0,30.0,-100.00,WSW,247,1.0,8.0,96,0.00,,,1.20,0.000000,,2013-11-28 04:43:00,
2013-11-27 23:52:00,31.0,30.0,-100.00,WSW,247,1.0,8.0,96,0.00,,,1.20,0.000000,,2013-11-28 04:52:00,